sensor_id;sensor_type;location;lat;lon;timestamp;pressure;altitude;pressure_sealevel;temperature;humidity
76551;BME280;68768;53.156;18.164;2023-07-13T00:01:54;100862.15;;;18.73;78.45
76551;BME280;68768;53.156;18.164;2023-07-13T00:04:23;100859.27;;;18.71;78.52
76551;BME280;68768;53.156;18.164;2023-07-13T00:06:52;100852.98;;;18.66;78.58
76551;BME280;68768;53.156;18.164;2023-07-13T00:09:19;100852.36;;;18.62;78.62
76551;BME280;68768;53.156;18.164;2023-07-13T00:11:52;100848.29;;;18.61;78.76
76551;BME280;68768;53.156;18.164;2023-07-13T00:14:20;100852.41;;;18.64;78.74
76551;BME280;68768;53.156;18.164;2023-07-13T00:16:46;100848.60;;;18.64;78.53
76551;BME280;68768;53.156;18.164;2023-07-13T00:19:13;100849.96;;;18.63;78.53
76551;BME280;68768;53.156;18.164;2023-07-13T00:21:41;100857.36;;;18.57;78.25
76551;BME280;68768;53.156;18.164;2023-07-13T00:24:12;100859.63;;;18.45;78.17
76551;BME280;68768;53.156;18.164;2023-07-13T00:26:42;100862.20;;;18.36;78.34
76551;BME280;68768;53.156;18.164;2023-07-13T00:29:12;100862.44;;;18.35;78.28
76551;BME280;68768;53.156;18.164;2023-07-13T00:31:39;100862.57;;;18.36;78.48
76551;BME280;68768;53.156;18.164;2023-07-13T00:34:06;100867.91;;;18.39;78.46
76551;BME280;68768;53.156;18.164;2023-07-13T00:36:34;100868.56;;;18.41;78.54
76551;BME280;68768;53.156;18.164;2023-07-13T00:39:01;100872.63;;;18.36;78.26
76551;BME280;68768;53.156;18.164;2023-07-13T00:41:27;100876.48;;;18.32;78.32
76551;BME280;68768;53.156;18.164;2023-07-13T00:43:55;100879.08;;;18.31;78.52
76551;BME280;68768;53.156;18.164;2023-07-13T00:46:27;100885.38;;;18.33;78.52
76551;BME280;68768;53.156;18.164;2023-07-13T00:48:59;100890.54;;;18.37;78.55
76551;BME280;68768;53.156;18.164;2023-07-13T00:51:34;100891.58;;;18.37;78.49
76551;BME280;68768;53.156;18.164;2023-07-13T00:54:05;100889.34;;;18.36;78.35
76551;BME280;68768;53.156;18.164;2023-07-13T00:56:34;100897.89;;;18.32;78.36
76551;BME280;68768;53.156;18.164;2023-07-13T00:59:02;100907.98;;;18.26;78.40
76551;BME280;68768;53.156;18.164;2023-07-13T01:01:32;100911.70;;;18.27;78.63
76551;BME280;68768;53.156;18.164;2023-07-13T01:03:59;100916.77;;;18.29;78.51
76551;BME280;68768;53.156;18.164;2023-07-13T01:06:26;100928.97;;;18.32;78.65
76551;BME280;68768;53.156;18.164;2023-07-13T01:08:55;100928.60;;;18.34;78.55
76551;BME280;68768;53.156;18.164;2023-07-13T01:11:22;100921.86;;;18.36;78.35
76551;BME280;68768;53.156;18.164;2023-07-13T01:13:49;100919.56;;;18.33;78.33
76551;BME280;68768;53.156;18.164;2023-07-13T01:16:31;100918.54;;;18.27;78.36
76551;BME280;68768;53.156;18.164;2023-07-13T01:19:00;100913.61;;;18.25;78.58
76551;BME280;68768;53.156;18.164;2023-07-13T01:21:29;100908.64;;;18.22;78.56
76551;BME280;68768;53.156;18.164;2023-07-13T01:24:00;100907.15;;;18.20;78.65
76551;BME280;68768;53.156;18.164;2023-07-13T01:26:26;100901.02;;;18.20;78.59
76551;BME280;68768;53.156;18.164;2023-07-13T01:28:54;100896.73;;;18.20;78.46
76551;BME280;68768;53.156;18.164;2023-07-13T01:31:23;100898.33;;;18.18;78.72
76551;BME280;68768;53.156;18.164;2023-07-13T01:33:51;100893.94;;;18.13;78.79
76551;BME280;68768;53.156;18.164;2023-07-13T01:36:21;100898.16;;;18.12;78.80
76551;BME280;68768;53.156;18.164;2023-07-13T01:38:48;100902.46;;;18.10;78.75
76551;BME280;68768;53.156;18.164;2023-07-13T01:41:15;100903.35;;;18.07;78.89
76551;BME280;68768;53.156;18.164;2023-07-13T01:43:42;100907.02;;;18.09;78.95
76551;BME280;68768;53.156;18.164;2023-07-13T01:46:09;100909.40;;;18.11;78.71
76551;BME280;68768;53.156;18.164;2023-07-13T01:48:36;100908.90;;;18.12;78.51
76551;BME280;68768;53.156;18.164;2023-07-13T01:51:03;100912.61;;;18.13;78.45
76551;BME280;68768;53.156;18.164;2023-07-13T01:53:30;100920.29;;;18.14;78.11
76551;BME280;68768;53.156;18.164;2023-07-13T01:55:58;100932.73;;;18.11;77.84
76551;BME280;68768;53.156;18.164;2023-07-13T01:58:25;100939.47;;;18.07;77.94
76551;BME280;68768;53.156;18.164;2023-07-13T02:00:52;100939.82;;;18.04;78.08
76551;BME280;68768;53.156;18.164;2023-07-13T02:03:19;100939.61;;;18.05;78.10
76551;BME280;68768;53.156;18.164;2023-07-13T02:05:46;100931.88;;;18.02;78.00
76551;BME280;68768;53.156;18.164;2023-07-13T02:08:13;100930.02;;;18.00;77.98
76551;BME280;68768;53.156;18.164;2023-07-13T02:10:40;100925.98;;;17.99;78.18
76551;BME280;68768;53.156;18.164;2023-07-13T02:13:08;100927.39;;;17.96;78.17
76551;BME280;68768;53.156;18.164;2023-07-13T02:15:38;100926.45;;;17.94;78.10
76551;BME280;68768;53.156;18.164;2023-07-13T02:18:06;100925.16;;;17.92;78.21
76551;BME280;68768;53.156;18.164;2023-07-13T02:20:33;100923.44;;;17.91;78.23
76551;BME280;68768;53.156;18.164;2023-07-13T02:23:00;100920.09;;;17.90;78.34
76551;BME280;68768;53.156;18.164;2023-07-13T02:25:27;100921.36;;;17.90;78.52
76551;BME280;68768;53.156;18.164;2023-07-13T02:27:54;100917.30;;;17.89;78.58
76551;BME280;68768;53.156;18.164;2023-07-13T02:30:21;100908.06;;;17.90;78.74
76551;BME280;68768;53.156;18.164;2023-07-13T02:32:55;100903.39;;;17.90;78.72
76551;BME280;68768;53.156;18.164;2023-07-13T02:35:22;100902.66;;;17.90;78.71
76551;BME280;68768;53.156;18.164;2023-07-13T02:37:50;100901.06;;;17.90;78.90
76551;BME280;68768;53.156;18.164;2023-07-13T02:40:17;100899.10;;;17.90;79.11
76551;BME280;68768;53.156;18.164;2023-07-13T02:42:44;100900.97;;;17.86;78.92
76551;BME280;68768;53.156;18.164;2023-07-13T02:45:11;100899.05;;;17.82;79.14
76551;BME280;68768;53.156;18.164;2023-07-13T02:47:41;100905.08;;;17.84;79.27
76551;BME280;68768;53.156;18.164;2023-07-13T02:50:09;100912.30;;;17.86;79.14
76551;BME280;68768;53.156;18.164;2023-07-13T02:52:36;100908.85;;;17.89;79.04
76551;BME280;68768;53.156;18.164;2023-07-13T02:55:03;100908.68;;;17.92;79.10
76551;BME280;68768;53.156;18.164;2023-07-13T02:57:30;100909.17;;;17.92;78.83
76551;BME280;68768;53.156;18.164;2023-07-13T03:00:00;100905.25;;;17.94;78.90
76551;BME280;68768;53.156;18.164;2023-07-13T03:02:28;100903.09;;;17.97;79.03
76551;BME280;68768;53.156;18.164;2023-07-13T03:04:55;100898.23;;;18.00;79.05
76551;BME280;68768;53.156;18.164;2023-07-13T03:07:22;100891.24;;;18.02;78.95
76551;BME280;68768;53.156;18.164;2023-07-13T03:09:55;100890.59;;;18.04;78.85
76551;BME280;68768;53.156;18.164;2023-07-13T03:12:24;100891.06;;;18.05;78.69
76551;BME280;68768;53.156;18.164;2023-07-13T03:14:52;100894.88;;;18.02;78.81
76551;BME280;68768;53.156;18.164;2023-07-13T03:17:19;100891.66;;;18.02;78.88
76551;BME280;68768;53.156;18.164;2023-07-13T03:19:46;100887.89;;;18.02;78.94
76551;BME280;68768;53.156;18.164;2023-07-13T03:22:17;100894.94;;;18.04;79.11
76551;BME280;68768;53.156;18.164;2023-07-13T03:24:45;100896.95;;;18.03;79.09
76551;BME280;68768;53.156;18.164;2023-07-13T03:27:12;100891.21;;;18.03;78.94
76551;BME280;68768;53.156;18.164;2023-07-13T03:29:41;100899.52;;;18.02;79.05
76551;BME280;68768;53.156;18.164;2023-07-13T03:32:08;100911.48;;;18.01;79.11
76551;BME280;68768;53.156;18.164;2023-07-13T03:34:36;100910.50;;;17.99;79.04
76551;BME280;68768;53.156;18.164;2023-07-13T03:37:03;100912.16;;;17.99;79.17
76551;BME280;68768;53.156;18.164;2023-07-13T03:39:30;100915.77;;;18.01;79.21
76551;BME280;68768;53.156;18.164;2023-07-13T03:41:58;100919.65;;;18.08;79.23
76551;BME280;68768;53.156;18.164;2023-07-13T03:44:25;100918.87;;;18.14;79.44
76551;BME280;68768;53.156;18.164;2023-07-13T03:46:55;100919.65;;;18.18;79.41
76551;BME280;68768;53.156;18.164;2023-07-13T03:49:23;100927.24;;;18.17;79.60
76551;BME280;68768;53.156;18.164;2023-07-13T03:51:50;100923.27;;;18.18;79.49
76551;BME280;68768;53.156;18.164;2023-07-13T03:54:17;100923.82;;;18.20;79.40
76551;BME280;68768;53.156;18.164;2023-07-13T03:56:45;100927.02;;;18.21;79.25
76551;BME280;68768;53.156;18.164;2023-07-13T03:59:12;100933.98;;;18.22;79.39
76551;BME280;68768;53.156;18.164;2023-07-13T04:01:39;100935.27;;;18.24;79.44
76551;BME280;68768;53.156;18.164;2023-07-13T04:04:06;100937.78;;;18.26;79.44
76551;BME280;68768;53.156;18.164;2023-07-13T04:06:34;100942.08;;;18.30;79.48
76551;BME280;68768;53.156;18.164;2023-07-13T04:09:03;100943.09;;;18.30;79.37
76551;BME280;68768;53.156;18.164;2023-07-13T04:11:32;100946.21;;;18.32;79.30
76551;BME280;68768;53.156;18.164;2023-07-13T04:14:01;100946.29;;;18.36;79.29
76551;BME280;68768;53.156;18.164;2023-07-13T04:16:28;100949.90;;;18.38;79.15
76551;BME280;68768;53.156;18.164;2023-07-13T04:18:55;100957.30;;;18.41;79.29
76551;BME280;68768;53.156;18.164;2023-07-13T04:21:28;100955.98;;;18.45;79.28
76551;BME280;68768;53.156;18.164;2023-07-13T04:23:56;100951.87;;;18.47;79.24
76551;BME280;68768;53.156;18.164;2023-07-13T04:26:23;100950.37;;;18.48;78.96
76551;BME280;68768;53.156;18.164;2023-07-13T04:28:51;100948.56;;;18.48;78.97
76551;BME280;68768;53.156;18.164;2023-07-13T04:31:18;100946.90;;;18.49;79.01
76551;BME280;68768;53.156;18.164;2023-07-13T04:33:46;100935.09;;;18.51;79.07
76551;BME280;68768;53.156;18.164;2023-07-13T04:36:13;100928.89;;;18.65;78.94
76551;BME280;68768;53.156;18.164;2023-07-13T04:38:40;100939.34;;;19.04;78.75
76551;BME280;68768;53.156;18.164;2023-07-13T04:41:08;100949.23;;;19.52;77.87
76551;BME280;68768;53.156;18.164;2023-07-13T04:43:36;100956.05;;;20.02;77.14
76551;BME280;68768;53.156;18.164;2023-07-13T04:46:21;100953.21;;;20.47;76.19
76551;BME280;68768;53.156;18.164;2023-07-13T04:48:49;100945.31;;;20.58;75.65
76551;BME280;68768;53.156;18.164;2023-07-13T04:51:17;100950.84;;;20.74;75.25
76551;BME280;68768;53.156;18.164;2023-07-13T04:53:44;100957.35;;;21.10;74.16
76551;BME280;68768;53.156;18.164;2023-07-13T04:56:11;100967.00;;;21.53;73.53
76551;BME280;68768;53.156;18.164;2023-07-13T04:58:38;100982.91;;;21.99;72.30
76551;BME280;68768;53.156;18.164;2023-07-13T05:01:07;100988.67;;;22.39;71.24
76551;BME280;68768;53.156;18.164;2023-07-13T05:03:36;100986.03;;;22.77;69.83
76551;BME280;68768;53.156;18.164;2023-07-13T05:06:05;100984.98;;;23.06;67.84
76551;BME280;68768;53.156;18.164;2023-07-13T05:08:32;100982.55;;;23.28;69.55
76551;BME280;68768;53.156;18.164;2023-07-13T05:11:00;100980.27;;;23.47;68.39
76551;BME280;68768;53.156;18.164;2023-07-13T05:13:28;100985.05;;;23.40;67.89
76551;BME280;68768;53.156;18.164;2023-07-13T05:16:00;100990.33;;;23.32;67.87
76551;BME280;68768;53.156;18.164;2023-07-13T05:18:27;100987.34;;;23.29;68.34
76551;BME280;68768;53.156;18.164;2023-07-13T05:21:02;100988.39;;;23.31;66.98
76551;BME280;68768;53.156;18.164;2023-07-13T05:23:31;100985.89;;;23.14;66.83
76551;BME280;68768;53.156;18.164;2023-07-13T05:25:58;100985.98;;;22.94;66.65
76551;BME280;68768;53.156;18.164;2023-07-13T05:28:26;100990.17;;;22.75;67.24
76551;BME280;68768;53.156;18.164;2023-07-13T05:30:53;100993.38;;;22.67;66.82
76551;BME280;68768;53.156;18.164;2023-07-13T05:33:21;100993.55;;;22.91;66.66
76551;BME280;68768;53.156;18.164;2023-07-13T05:35:48;100990.55;;;23.27;64.78
76551;BME280;68768;53.156;18.164;2023-07-13T05:38:15;100990.35;;;23.59;63.46
76551;BME280;68768;53.156;18.164;2023-07-13T05:40:43;100995.30;;;23.95;64.49
76551;BME280;68768;53.156;18.164;2023-07-13T05:43:11;101002.05;;;24.00;64.02
76551;BME280;68768;53.156;18.164;2023-07-13T05:45:39;101009.41;;;24.05;64.09
76551;BME280;68768;53.156;18.164;2023-07-13T05:48:06;101012.06;;;24.07;63.19
76551;BME280;68768;53.156;18.164;2023-07-13T05:50:33;101012.80;;;24.07;64.13
76551;BME280;68768;53.156;18.164;2023-07-13T05:53:00;101009.94;;;24.37;62.98
76551;BME280;68768;53.156;18.164;2023-07-13T05:55:27;101006.02;;;24.64;61.70
76551;BME280;68768;53.156;18.164;2023-07-13T05:57:54;101002.63;;;24.79;60.78
76551;BME280;68768;53.156;18.164;2023-07-13T06:00:21;101001.73;;;24.98;61.02
76551;BME280;68768;53.156;18.164;2023-07-13T06:02:48;101003.05;;;25.24;59.60
76551;BME280;68768;53.156;18.164;2023-07-13T06:05:15;101003.78;;;25.51;60.69
76551;BME280;68768;53.156;18.164;2023-07-13T06:07:42;101007.44;;;25.75;60.59
76551;BME280;68768;53.156;18.164;2023-07-13T06:10:10;101007.60;;;25.92;60.00
76551;BME280;68768;53.156;18.164;2023-07-13T06:12:37;101007.09;;;26.06;59.61
76551;BME280;68768;53.156;18.164;2023-07-13T06:15:04;101000.05;;;26.24;59.09
76551;BME280;68768;53.156;18.164;2023-07-13T06:17:31;100999.58;;;26.58;58.61
76551;BME280;68768;53.156;18.164;2023-07-13T06:19:58;100995.44;;;26.91;58.66
76551;BME280;68768;53.156;18.164;2023-07-13T06:22:25;100990.38;;;27.16;57.51
76551;BME280;68768;53.156;18.164;2023-07-13T06:24:52;100987.72;;;27.35;56.39
76551;BME280;68768;53.156;18.164;2023-07-13T06:27:19;100986.13;;;27.42;54.24
76551;BME280;68768;53.156;18.164;2023-07-13T06:29:46;100981.19;;;27.44;55.58
76551;BME280;68768;53.156;18.164;2023-07-13T06:32:13;100987.64;;;27.47;53.84
76551;BME280;68768;53.156;18.164;2023-07-13T06:34:40;100989.58;;;27.53;53.23
76551;BME280;68768;53.156;18.164;2023-07-13T06:37:08;100986.27;;;27.63;53.58
76551;BME280;68768;53.156;18.164;2023-07-13T06:39:35;100987.14;;;27.79;52.81
76551;BME280;68768;53.156;18.164;2023-07-13T06:42:02;100986.64;;;27.92;51.67
76551;BME280;68768;53.156;18.164;2023-07-13T06:44:29;100989.77;;;27.99;51.40
76551;BME280;68768;53.156;18.164;2023-07-13T06:46:56;100994.09;;;28.23;51.85
76551;BME280;68768;53.156;18.164;2023-07-13T06:49:23;100993.63;;;28.30;47.93
76551;BME280;68768;53.156;18.164;2023-07-13T06:51:50;100992.47;;;28.03;50.55
76551;BME280;68768;53.156;18.164;2023-07-13T06:54:17;100990.11;;;27.73;49.90
76551;BME280;68768;53.156;18.164;2023-07-13T06:56:44;100999.11;;;27.28;49.74
76551;BME280;68768;53.156;18.164;2023-07-13T06:59:11;101011.05;;;26.88;50.72
76551;BME280;68768;53.156;18.164;2023-07-13T07:01:38;101015.48;;;26.55;50.53
76551;BME280;68768;53.156;18.164;2023-07-13T07:04:05;101021.18;;;26.24;50.71
76551;BME280;68768;53.156;18.164;2023-07-13T07:06:32;101023.95;;;25.99;51.71
76551;BME280;68768;53.156;18.164;2023-07-13T07:08:59;101016.80;;;25.84;51.76
76551;BME280;68768;53.156;18.164;2023-07-13T07:11:26;101020.82;;;25.63;52.34
76551;BME280;68768;53.156;18.164;2023-07-13T07:13:53;101015.83;;;25.39;52.71
76551;BME280;68768;53.156;18.164;2023-07-13T07:16:21;101017.17;;;25.21;52.81
76551;BME280;68768;53.156;18.164;2023-07-13T07:18:49;101023.50;;;25.04;53.40
76551;BME280;68768;53.156;18.164;2023-07-13T07:21:15;101027.73;;;24.96;53.88
76551;BME280;68768;53.156;18.164;2023-07-13T07:23:44;101031.95;;;24.91;53.93
76551;BME280;68768;53.156;18.164;2023-07-13T07:26:11;101032.87;;;24.93;53.76
76551;BME280;68768;53.156;18.164;2023-07-13T07:28:38;101028.95;;;24.94;53.58
76551;BME280;68768;53.156;18.164;2023-07-13T07:31:05;101022.80;;;24.98;53.38
76551;BME280;68768;53.156;18.164;2023-07-13T07:33:33;101016.75;;;25.20;53.15
76551;BME280;68768;53.156;18.164;2023-07-13T07:36:01;101020.12;;;25.60;52.32
76551;BME280;68768;53.156;18.164;2023-07-13T07:38:29;101014.19;;;25.99;52.50
76551;BME280;68768;53.156;18.164;2023-07-13T07:40:56;101012.02;;;26.43;51.24
76551;BME280;68768;53.156;18.164;2023-07-13T07:43:23;101014.53;;;26.68;50.65
76551;BME280;68768;53.156;18.164;2023-07-13T07:45:50;101014.80;;;26.81;50.69
76551;BME280;68768;53.156;18.164;2023-07-13T07:48:17;101012.92;;;26.96;51.07
76551;BME280;68768;53.156;18.164;2023-07-13T07:50:44;101013.20;;;27.31;51.41
76551;BME280;68768;53.156;18.164;2023-07-13T07:53:12;101008.02;;;27.80;49.35
76551;BME280;68768;53.156;18.164;2023-07-13T07:55:39;101008.92;;;27.90;49.70
76551;BME280;68768;53.156;18.164;2023-07-13T07:58:07;101015.35;;;28.08;50.10
76551;BME280;68768;53.156;18.164;2023-07-13T08:00:34;101021.61;;;28.45;49.69
76551;BME280;68768;53.156;18.164;2023-07-13T08:03:02;101018.25;;;28.82;48.93
76551;BME280;68768;53.156;18.164;2023-07-13T08:05:29;101021.16;;;29.10;47.54
76551;BME280;68768;53.156;18.164;2023-07-13T08:07:56;101025.83;;;29.21;47.57
76551;BME280;68768;53.156;18.164;2023-07-13T08:10:23;101023.32;;;29.30;47.86
76551;BME280;68768;53.156;18.164;2023-07-13T08:12:50;101025.58;;;29.40;47.41
76551;BME280;68768;53.156;18.164;2023-07-13T08:15:17;101023.13;;;29.51;47.22
76551;BME280;68768;53.156;18.164;2023-07-13T08:17:48;101024.33;;;29.70;46.93
76551;BME280;68768;53.156;18.164;2023-07-13T08:20:15;101020.13;;;29.92;46.76
76551;BME280;68768;53.156;18.164;2023-07-13T08:22:42;101020.17;;;30.14;46.72
76551;BME280;68768;53.156;18.164;2023-07-13T08:25:09;101019.19;;;30.37;46.64
76551;BME280;68768;53.156;18.164;2023-07-13T08:27:36;101018.47;;;30.56;46.44
76551;BME280;68768;53.156;18.164;2023-07-13T08:30:04;101015.63;;;30.76;45.47
76551;BME280;68768;53.156;18.164;2023-07-13T08:32:32;101013.77;;;30.87;45.83
76551;BME280;68768;53.156;18.164;2023-07-13T08:34:59;101008.79;;;31.00;45.08
76551;BME280;68768;53.156;18.164;2023-07-13T08:37:26;101002.70;;;31.11;45.14
76551;BME280;68768;53.156;18.164;2023-07-13T08:39:53;100998.42;;;31.33;44.73
76551;BME280;68768;53.156;18.164;2023-07-13T08:42:45;100992.95;;;31.48;44.43
76551;BME280;68768;53.156;18.164;2023-07-13T08:45:22;100986.25;;;31.55;43.40
76551;BME280;68768;53.156;18.164;2023-07-13T08:48:02;100990.48;;;31.60;42.86
76551;BME280;68768;53.156;18.164;2023-07-13T08:50:35;100989.23;;;31.79;42.71
76551;BME280;68768;53.156;18.164;2023-07-13T08:53:05;100980.61;;;31.87;40.80
76551;BME280;68768;53.156;18.164;2023-07-13T08:55:35;100979.35;;;31.88;40.30
76551;BME280;68768;53.156;18.164;2023-07-13T08:58:14;100978.05;;;31.79;40.20
76551;BME280;68768;53.156;18.164;2023-07-13T09:03:18;100982.98;;;31.72;40.59
76551;BME280;68768;53.156;18.164;2023-07-13T09:05:52;100990.67;;;31.57;40.32
76551;BME280;68768;53.156;18.164;2023-07-13T09:09:01;100989.70;;;31.38;39.15
76551;BME280;68768;53.156;18.164;2023-07-13T09:11:45;100998.63;;;31.00;40.20
76551;BME280;68768;53.156;18.164;2023-07-13T09:14:26;101003.45;;;30.61;39.76
76551;BME280;68768;53.156;18.164;2023-07-13T09:17:00;101004.87;;;30.27;40.94
76551;BME280;68768;53.156;18.164;2023-07-13T09:19:30;101003.09;;;29.98;41.50
76551;BME280;68768;53.156;18.164;2023-07-13T09:22:02;101001.88;;;29.50;41.83
76551;BME280;68768;53.156;18.164;2023-07-13T09:27:23;101003.51;;;28.50;43.33
76551;BME280;68768;53.156;18.164;2023-07-13T09:30:01;101002.38;;;28.14;43.55
76551;BME280;68768;53.156;18.164;2023-07-13T09:32:29;100999.48;;;27.87;43.53
76551;BME280;68768;53.156;18.164;2023-07-13T09:34:57;101004.90;;;27.70;43.68
76551;BME280;68768;53.156;18.164;2023-07-13T09:37:30;101009.00;;;27.59;44.32
76551;BME280;68768;53.156;18.164;2023-07-13T09:39:59;101007.78;;;27.51;44.31
76551;BME280;68768;53.156;18.164;2023-07-13T09:42:28;101008.25;;;27.43;43.55
76551;BME280;68768;53.156;18.164;2023-07-13T09:44:58;101011.25;;;27.34;43.04
76551;BME280;68768;53.156;18.164;2023-07-13T09:47:28;101007.79;;;27.15;42.78
76551;BME280;68768;53.156;18.164;2023-07-13T09:50:06;101003.23;;;27.00;42.78
76551;BME280;68768;53.156;18.164;2023-07-13T09:52:53;100994.36;;;26.91;42.69
76551;BME280;68768;53.156;18.164;2023-07-13T09:55:41;100990.44;;;26.79;42.11
76551;BME280;68768;53.156;18.164;2023-07-13T09:58:20;100987.50;;;26.74;42.58
76551;BME280;68768;53.156;18.164;2023-07-13T10:01:01;100987.87;;;26.74;42.60
76551;BME280;68768;53.156;18.164;2023-07-13T10:03:34;100985.41;;;26.86;43.49
76551;BME280;68768;53.156;18.164;2023-07-13T10:06:16;100983.25;;;27.05;43.37
76551;BME280;68768;53.156;18.164;2023-07-13T10:08:48;100980.61;;;27.17;42.61
76551;BME280;68768;53.156;18.164;2023-07-13T10:11:24;100980.41;;;27.26;43.08
76551;BME280;68768;53.156;18.164;2023-07-13T10:14:09;100974.19;;;27.31;42.43
76551;BME280;68768;53.156;18.164;2023-07-13T10:16:37;100983.77;;;27.26;42.44
76551;BME280;68768;53.156;18.164;2023-07-13T10:19:20;100983.17;;;27.16;43.59
76551;BME280;68768;53.156;18.164;2023-07-13T10:21:56;100982.89;;;27.07;43.57
76551;BME280;68768;53.156;18.164;2023-07-13T10:24:26;100986.30;;;27.00;43.39
76551;BME280;68768;53.156;18.164;2023-07-13T10:29:24;100989.52;;;26.79;44.26
76551;BME280;68768;53.156;18.164;2023-07-13T10:31:53;100988.69;;;26.71;44.68
76551;BME280;68768;53.156;18.164;2023-07-13T10:34:20;100984.85;;;26.63;44.91
76551;BME280;68768;53.156;18.164;2023-07-13T10:36:48;100985.08;;;26.52;44.95
76551;BME280;68768;53.156;18.164;2023-07-13T10:39:19;100986.30;;;26.39;45.37
76551;BME280;68768;53.156;18.164;2023-07-13T10:41:52;100993.89;;;26.33;45.55
76551;BME280;68768;53.156;18.164;2023-07-13T10:44:26;100990.50;;;26.25;45.42
76551;BME280;68768;53.156;18.164;2023-07-13T10:47:07;100993.05;;;26.14;45.66
76551;BME280;68768;53.156;18.164;2023-07-13T10:49:35;100990.18;;;26.06;45.64
76551;BME280;68768;53.156;18.164;2023-07-13T10:52:03;100986.30;;;25.99;46.02
76551;BME280;68768;53.156;18.164;2023-07-13T10:54:32;100982.56;;;25.91;45.90
76551;BME280;68768;53.156;18.164;2023-07-13T10:59:39;100990.50;;;25.83;46.29
76551;BME280;68768;53.156;18.164;2023-07-13T11:05:13;100983.71;;;25.92;46.44
76551;BME280;68768;53.156;18.164;2023-07-13T11:08:21;100984.48;;;25.98;46.52
76551;BME280;68768;53.156;18.164;2023-07-13T11:10:58;100986.05;;;25.98;46.64
76551;BME280;68768;53.156;18.164;2023-07-13T11:21:32;100994.66;;;26.07;46.93
76551;BME280;68768;53.156;18.164;2023-07-13T11:24:12;100996.19;;;26.04;47.15
76551;BME280;68768;53.156;18.164;2023-07-13T11:26:42;100998.16;;;26.03;47.35
76551;BME280;68768;53.156;18.164;2023-07-13T11:29:24;100995.39;;;25.97;47.46
76551;BME280;68768;53.156;18.164;2023-07-13T11:31:54;100993.06;;;25.88;48.16
76551;BME280;68768;53.156;18.164;2023-07-13T11:34:35;100991.73;;;25.78;48.09
76551;BME280;68768;53.156;18.164;2023-07-13T11:37:03;100992.99;;;25.68;48.29
76551;BME280;68768;53.156;18.164;2023-07-13T11:39:37;100995.66;;;25.61;48.16
76551;BME280;68768;53.156;18.164;2023-07-13T11:42:09;100990.16;;;25.56;48.24
76551;BME280;68768;53.156;18.164;2023-07-13T11:44:45;100989.00;;;25.57;48.55
76551;BME280;68768;53.156;18.164;2023-07-13T11:47:21;100991.36;;;25.61;48.77
76551;BME280;68768;53.156;18.164;2023-07-13T11:49:52;100994.80;;;25.63;49.03
76551;BME280;68768;53.156;18.164;2023-07-13T11:52:22;101001.89;;;25.63;49.11
76551;BME280;68768;53.156;18.164;2023-07-13T11:54:55;101008.36;;;25.60;49.26
76551;BME280;68768;53.156;18.164;2023-07-13T11:57:29;101005.23;;;25.54;49.19
76551;BME280;68768;53.156;18.164;2023-07-13T11:59:59;101005.67;;;25.50;49.35
76551;BME280;68768;53.156;18.164;2023-07-13T12:02:28;101003.48;;;25.44;49.80
76551;BME280;68768;53.156;18.164;2023-07-13T12:04:57;100994.25;;;25.40;49.84
76551;BME280;68768;53.156;18.164;2023-07-13T12:07:28;100991.59;;;25.38;49.59
76551;BME280;68768;53.156;18.164;2023-07-13T12:10:25;100995.75;;;25.36;49.94
76551;BME280;68768;53.156;18.164;2023-07-13T12:13:00;100994.44;;;25.35;50.05
76551;BME280;68768;53.156;18.164;2023-07-13T12:15:40;100988.66;;;25.36;50.02
76551;BME280;68768;53.156;18.164;2023-07-13T12:18:19;100985.88;;;25.40;50.12
76551;BME280;68768;53.156;18.164;2023-07-13T12:20:47;100986.72;;;25.45;50.23
76551;BME280;68768;53.156;18.164;2023-07-13T12:23:22;100990.55;;;25.48;50.59
76551;BME280;68768;53.156;18.164;2023-07-13T12:25:52;100986.58;;;25.52;50.15
76551;BME280;68768;53.156;18.164;2023-07-13T12:30:49;100986.86;;;25.54;50.32
76551;BME280;68768;53.156;18.164;2023-07-13T12:33:16;100980.39;;;25.57;50.47
76551;BME280;68768;53.156;18.164;2023-07-13T12:35:50;100977.73;;;25.61;50.37
76551;BME280;68768;53.156;18.164;2023-07-13T12:38:19;100980.31;;;25.62;50.34
76551;BME280;68768;53.156;18.164;2023-07-13T12:40:49;100975.77;;;25.66;50.31
76551;BME280;68768;53.156;18.164;2023-07-13T12:43:20;100975.50;;;25.69;50.24
76551;BME280;68768;53.156;18.164;2023-07-13T12:45:59;100971.80;;;25.76;49.90
76551;BME280;68768;53.156;18.164;2023-07-13T12:48:28;100966.66;;;25.87;49.98
76551;BME280;68768;53.156;18.164;2023-07-13T12:50:55;100961.62;;;25.95;49.58
76551;BME280;68768;53.156;18.164;2023-07-13T12:53:28;100960.46;;;26.01;49.31
76551;BME280;68768;53.156;18.164;2023-07-13T12:55:59;100959.27;;;26.08;49.43
76551;BME280;68768;53.156;18.164;2023-07-13T12:58:36;100960.55;;;26.13;49.02
76551;BME280;68768;53.156;18.164;2023-07-13T13:01:05;100959.62;;;26.15;48.52
76551;BME280;68768;53.156;18.164;2023-07-13T13:08:47;100962.85;;;26.28;47.75
76551;BME280;68768;53.156;18.164;2023-07-13T13:11:15;100967.00;;;26.30;47.84
76551;BME280;68768;53.156;18.164;2023-07-13T13:13:43;100967.93;;;26.30;46.97
76551;BME280;68768;53.156;18.164;2023-07-13T13:16:21;100963.00;;;26.32;46.30
76551;BME280;68768;53.156;18.164;2023-07-13T13:18:50;100966.27;;;26.34;45.73
76551;BME280;68768;53.156;18.164;2023-07-13T13:21:18;100969.79;;;26.35;45.24
76551;BME280;68768;53.156;18.164;2023-07-13T13:23:46;100965.11;;;26.33;45.41